Gunnison, CO

07:41 MDT le 30 octobre 2014 (GMT -0600)
Gunnison County | Change Station
CLOSE
Current Station
Aéroport
Location: Gunnison,
Altitude: 7674 ft
Stations météo à proximité

Alt. 7674 ft 38.53 °N, 106.93 °W | Updated 6 minutes ago

Ciel dégagé
Ciel dégagé
19 ° F
Paraît 19 ° F
N
0
Vent Variable Vent de Nord

Aujourd'hui
Haut(e) -- | Bas -- ° F
--% Risque de précip.
Hier
Haut(e) -- | Bas -- ° F
Precip. -- pouce
7:32 AM 6:09 PM
Lune montante, 44% visible
Pression 30.49 pouce
Visibilité 10.0 Miles terrestres
Nuages Ciel dégagé
Point de rosée 10 ° F
Humidité 68%
Précipitations 0.00 pouce
Profondeur de la couche neigeuse Non disponible.
UV 0 sur 12
Pollen .70 sur 12
Qualité de l'air Non disponible.
Flu Activity Non disponible.
METAR KGUC 301335Z AUTO 00000KT 10SM CLR M07/M12 A3049 RMK AO1

More Conditions Fewer Conditions

Pression 30.49 pouce
Visibilité 10.0 Miles terrestres
Nuages Ciel dégagé
Point de rosée 10 ° F
Humidité 68%
Précipitations 0.00 pouce
Profondeur de la couche neigeuse Non disponible.
UV 0 sur 12
Pollen .70 sur 12
Qualité de l'air Non disponible.
Flu Activity Non disponible.
METAR KGUC 301335Z AUTO 00000KT 10SM CLR M07/M12 A3049 RMK AO1

More Conditions Fewer Conditions

10-Day Weather Forecast

Almanac

Astronomie

Oct. 30, 2014 Lever Coucher
Temps réel
Crépuscule civil
Crépuscule nautique
Crépuscule astronomique
Lune
Durée de lumière visible
Longueur du jour
Tomorrow will be .
, % of the Moon is Illuminated

Extrêmes aujourd'hui

State Highs State Lows

Community

WunderPhotos

Upload Photos

1,766,358 Photos téléchargées !

WunderBlogs® & News

Nearby

Qualité de l'air

  Qualité de l'air Indice de la qualité de l'air Polluant
Not available.

Épaisseur de neige

Station Depth Altitude

Activité sismique

Ville Distance Mag. Time & Date
Minimum magnitude displayed is 2.5.

Températures des eaux côtières

Lieu Température

Stations météo à proximité